sensor_id;sensor_type;location;lat;lon;timestamp;P1;durP1;ratioP1;P2;durP2;ratioP2
47153;SDS011;32907;41.412;2.164;2022-10-17T00:01:04;3.90;;;2.08;;
47153;SDS011;32907;41.412;2.164;2022-10-17T00:03:32;3.72;;;1.80;;
47153;SDS011;32907;41.412;2.164;2022-10-17T00:06:05;5.20;;;2.00;;
47153;SDS011;32907;41.412;2.164;2022-10-17T00:08:35;5.60;;;1.90;;
47153;SDS011;32907;41.412;2.164;2022-10-17T00:11:05;5.72;;;2.40;;
47153;SDS011;32907;41.412;2.164;2022-10-17T00:13:35;4.60;;;1.92;;
47153;SDS011;32907;41.412;2.164;2022-10-17T00:16:02;5.78;;;1.88;;
47153;SDS011;32907;41.412;2.164;2022-10-17T00:18:30;6.38;;;2.17;;
47153;SDS011;32907;41.412;2.164;2022-10-17T00:20:58;4.65;;;2.00;;
47153;SDS011;32907;41.412;2.164;2022-10-17T00:23:26;4.78;;;1.90;;
47153;SDS011;32907;41.412;2.164;2022-10-17T00:26:02;4.18;;;2.17;;
47153;SDS011;32907;41.412;2.164;2022-10-17T00:28:31;3.40;;;2.03;;
47153;SDS011;32907;41.412;2.164;2022-10-17T00:31:00;6.43;;;2.20;;
47153;SDS011;32907;41.412;2.164;2022-10-17T00:33:30;5.10;;;2.10;;
47153;SDS011;32907;41.412;2.164;2022-10-17T00:36:06;5.95;;;2.10;;
47153;SDS011;32907;41.412;2.164;2022-10-17T00:38:35;3.60;;;1.70;;
47153;SDS011;32907;41.412;2.164;2022-10-17T00:41:03;4.55;;;1.85;;
47153;SDS011;32907;41.412;2.164;2022-10-17T00:46:53;5.35;;;2.33;;
47153;SDS011;32907;41.412;2.164;2022-10-17T00:49:26;4.35;;;1.70;;
47153;SDS011;32907;41.412;2.164;2022-10-17T00:51:58;3.55;;;1.95;;
47153;SDS011;32907;41.412;2.164;2022-10-17T00:54:30;5.60;;;1.80;;
47153;SDS011;32907;41.412;2.164;2022-10-17T00:57:02;3.97;;;1.60;;
47153;SDS011;32907;41.412;2.164;2022-10-17T00:59:34;3.70;;;2.05;;
47153;SDS011;32907;41.412;2.164;2022-10-17T01:02:04;5.25;;;1.77;;
47153;SDS011;32907;41.412;2.164;2022-10-17T01:04:35;4.28;;;1.73;;
47153;SDS011;32907;41.412;2.164;2022-10-17T01:07:05;3.92;;;1.90;;
47153;SDS011;32907;41.412;2.164;2022-10-17T01:09:34;5.75;;;1.90;;
47153;SDS011;32907;41.412;2.164;2022-10-17T01:12:06;5.38;;;1.85;;
47153;SDS011;32907;41.412;2.164;2022-10-17T01:14:41;3.67;;;1.80;;
47153;SDS011;32907;41.412;2.164;2022-10-17T01:17:28;5.65;;;2.40;;
47153;SDS011;32907;41.412;2.164;2022-10-17T01:22:51;4.15;;;1.92;;
47153;SDS011;32907;41.412;2.164;2022-10-17T01:31:24;3.88;;;1.50;;
47153;SDS011;32907;41.412;2.164;2022-10-17T01:34:02;4.90;;;2.13;;
47153;SDS011;32907;41.412;2.164;2022-10-17T01:36:52;3.78;;;1.83;;
47153;SDS011;32907;41.412;2.164;2022-10-17T01:47:39;4.05;;;2.17;;
47153;SDS011;32907;41.412;2.164;2022-10-17T01:50:14;3.38;;;1.90;;
47153;SDS011;32907;41.412;2.164;2022-10-17T01:55:24;3.97;;;1.80;;
47153;SDS011;32907;41.412;2.164;2022-10-17T01:58:19;4.78;;;2.20;;
47153;SDS011;32907;41.412;2.164;2022-10-17T02:00:53;3.53;;;1.92;;
47153;SDS011;32907;41.412;2.164;2022-10-17T02:03:23;4.97;;;1.92;;
47153;SDS011;32907;41.412;2.164;2022-10-17T02:05:54;3.45;;;1.73;;
47153;SDS011;32907;41.412;2.164;2022-10-17T02:08:26;4.60;;;2.00;;
47153;SDS011;32907;41.412;2.164;2022-10-17T02:11:00;5.75;;;1.83;;
47153;SDS011;32907;41.412;2.164;2022-10-17T02:19:33;5.45;;;1.83;;
47153;SDS011;32907;41.412;2.164;2022-10-17T02:22:17;4.82;;;1.80;;
47153;SDS011;32907;41.412;2.164;2022-10-17T02:25:13;4.75;;;2.10;;
47153;SDS011;32907;41.412;2.164;2022-10-17T02:30:47;5.28;;;2.20;;
47153;SDS011;32907;41.412;2.164;2022-10-17T02:35:57;6.07;;;1.80;;
47153;SDS011;32907;41.412;2.164;2022-10-17T02:38:29;5.50;;;2.22;;
47153;SDS011;32907;41.412;2.164;2022-10-17T02:40:58;4.43;;;2.03;;
47153;SDS011;32907;41.412;2.164;2022-10-17T02:43:28;6.13;;;1.80;;
47153;SDS011;32907;41.412;2.164;2022-10-17T02:45:57;3.22;;;1.58;;
47153;SDS011;32907;41.412;2.164;2022-10-17T02:48:45;4.35;;;1.90;;
47153;SDS011;32907;41.412;2.164;2022-10-17T02:51:25;4.57;;;1.77;;
47153;SDS011;32907;41.412;2.164;2022-10-17T02:54:19;4.72;;;2.22;;
47153;SDS011;32907;41.412;2.164;2022-10-17T02:56:57;3.63;;;1.63;;
47153;SDS011;32907;41.412;2.164;2022-10-17T02:59:28;4.82;;;1.80;;
47153;SDS011;32907;41.412;2.164;2022-10-17T03:02:04;5.78;;;2.38;;
47153;SDS011;32907;41.412;2.164;2022-10-17T03:04:33;4.70;;;2.58;;
47153;SDS011;32907;41.412;2.164;2022-10-17T03:07:00;6.15;;;2.25;;
47153;SDS011;32907;41.412;2.164;2022-10-17T03:09:28;3.15;;;1.80;;
47153;SDS011;32907;41.412;2.164;2022-10-17T03:11:56;5.53;;;2.10;;
47153;SDS011;32907;41.412;2.164;2022-10-17T03:14:24;3.67;;;1.70;;
47153;SDS011;32907;41.412;2.164;2022-10-17T03:16:52;5.05;;;1.90;;
47153;SDS011;32907;41.412;2.164;2022-10-17T03:19:19;5.88;;;2.47;;
47153;SDS011;32907;41.412;2.164;2022-10-17T03:21:47;4.47;;;2.22;;
47153;SDS011;32907;41.412;2.164;2022-10-17T03:24:16;5.13;;;2.58;;
47153;SDS011;32907;41.412;2.164;2022-10-17T03:26:43;5.95;;;2.42;;
47153;SDS011;32907;41.412;2.164;2022-10-17T03:29:12;2.83;;;1.73;;
47153;SDS011;32907;41.412;2.164;2022-10-17T03:31:41;4.00;;;1.90;;
47153;SDS011;32907;41.412;2.164;2022-10-17T03:34:09;4.45;;;1.83;;
47153;SDS011;32907;41.412;2.164;2022-10-17T03:36:37;4.90;;;1.85;;
47153;SDS011;32907;41.412;2.164;2022-10-17T03:39:05;4.93;;;1.83;;
47153;SDS011;32907;41.412;2.164;2022-10-17T03:41:33;6.47;;;2.13;;
47153;SDS011;32907;41.412;2.164;2022-10-17T03:44:01;5.10;;;1.92;;
47153;SDS011;32907;41.412;2.164;2022-10-17T03:46:30;4.55;;;1.92;;
47153;SDS011;32907;41.412;2.164;2022-10-17T03:48:59;5.00;;;2.00;;
47153;SDS011;32907;41.412;2.164;2022-10-17T03:51:27;5.40;;;2.03;;
47153;SDS011;32907;41.412;2.164;2022-10-17T03:54:01;4.60;;;2.05;;
47153;SDS011;32907;41.412;2.164;2022-10-17T03:56:29;4.32;;;1.95;;
47153;SDS011;32907;41.412;2.164;2022-10-17T03:59:11;5.65;;;2.33;;
47153;SDS011;32907;41.412;2.164;2022-10-17T04:01:42;4.65;;;2.10;;
47153;SDS011;32907;41.412;2.164;2022-10-17T04:04:11;5.13;;;1.80;;
47153;SDS011;32907;41.412;2.164;2022-10-17T04:06:40;5.30;;;1.90;;
47153;SDS011;32907;41.412;2.164;2022-10-17T04:09:09;7.00;;;2.10;;
47153;SDS011;32907;41.412;2.164;2022-10-17T04:11:53;5.28;;;1.90;;
47153;SDS011;32907;41.412;2.164;2022-10-17T04:14:21;3.65;;;1.70;;
47153;SDS011;32907;41.412;2.164;2022-10-17T04:16:50;6.00;;;2.05;;
47153;SDS011;32907;41.412;2.164;2022-10-17T04:19:20;3.28;;;2.15;;
47153;SDS011;32907;41.412;2.164;2022-10-17T04:21:49;4.97;;;2.45;;
47153;SDS011;32907;41.412;2.164;2022-10-17T04:24:18;5.60;;;2.03;;
47153;SDS011;32907;41.412;2.164;2022-10-17T04:27:08;4.07;;;2.10;;
47153;SDS011;32907;41.412;2.164;2022-10-17T04:29:39;5.15;;;2.00;;
47153;SDS011;32907;41.412;2.164;2022-10-17T04:32:15;4.07;;;1.93;;
47153;SDS011;32907;41.412;2.164;2022-10-17T04:35:04;6.30;;;2.40;;
47153;SDS011;32907;41.412;2.164;2022-10-17T04:37:32;5.10;;;3.20;;
47153;SDS011;32907;41.412;2.164;2022-10-17T04:40:05;7.03;;;4.00;;
47153;SDS011;32907;41.412;2.164;2022-10-17T04:42:35;9.52;;;4.15;;
47153;SDS011;32907;41.412;2.164;2022-10-17T04:45:03;7.13;;;3.55;;
47153;SDS011;32907;41.412;2.164;2022-10-17T04:47:32;4.28;;;3.30;;
47153;SDS011;32907;41.412;2.164;2022-10-17T04:49:59;5.78;;;2.63;;
47153;SDS011;32907;41.412;2.164;2022-10-17T04:52:29;4.57;;;2.45;;
47153;SDS011;32907;41.412;2.164;2022-10-17T04:54:58;5.05;;;2.72;;
47153;SDS011;32907;41.412;2.164;2022-10-17T04:57:26;6.85;;;2.80;;
47153;SDS011;32907;41.412;2.164;2022-10-17T05:00:11;5.47;;;3.08;;
47153;SDS011;32907;41.412;2.164;2022-10-17T05:02:45;9.15;;;2.80;;
47153;SDS011;32907;41.412;2.164;2022-10-17T05:05:13;5.32;;;2.53;;
47153;SDS011;32907;41.412;2.164;2022-10-17T05:07:44;6.15;;;2.70;;
47153;SDS011;32907;41.412;2.164;2022-10-17T05:10:16;7.68;;;2.72;;
47153;SDS011;32907;41.412;2.164;2022-10-17T05:12:47;6.50;;;3.05;;
47153;SDS011;32907;41.412;2.164;2022-10-17T05:15:17;6.47;;;3.20;;
47153;SDS011;32907;41.412;2.164;2022-10-17T05:17:45;5.80;;;4.10;;
47153;SDS011;32907;41.412;2.164;2022-10-17T05:20:13;9.38;;;5.50;;
47153;SDS011;32907;41.412;2.164;2022-10-17T05:22:41;27.65;;;10.88;;
47153;SDS011;32907;41.412;2.164;2022-10-17T05:25:10;21.67;;;9.43;;
47153;SDS011;32907;41.412;2.164;2022-10-17T05:27:38;17.13;;;7.53;;
47153;SDS011;32907;41.412;2.164;2022-10-17T05:30:07;15.00;;;5.65;;
47153;SDS011;32907;41.412;2.164;2022-10-17T05:32:36;11.48;;;4.68;;
47153;SDS011;32907;41.412;2.164;2022-10-17T05:35:06;12.60;;;4.55;;
47153;SDS011;32907;41.412;2.164;2022-10-17T05:37:36;10.98;;;4.38;;
47153;SDS011;32907;41.412;2.164;2022-10-17T05:40:04;9.77;;;3.72;;
47153;SDS011;32907;41.412;2.164;2022-10-17T05:42:32;3.53;;;1.27;;
47153;SDS011;32907;41.412;2.164;2022-10-17T05:45:01;4.65;;;2.10;;
47153;SDS011;32907;41.412;2.164;2022-10-17T05:47:29;5.47;;;2.50;;
47153;SDS011;32907;41.412;2.164;2022-10-17T05:49:58;8.57;;;2.70;;
47153;SDS011;32907;41.412;2.164;2022-10-17T05:52:32;8.05;;;2.67;;
47153;SDS011;32907;41.412;2.164;2022-10-17T05:55:09;7.30;;;2.70;;
47153;SDS011;32907;41.412;2.164;2022-10-17T05:57:36;10.15;;;3.00;;
47153;SDS011;32907;41.412;2.164;2022-10-17T06:00:08;12.32;;;2.92;;
47153;SDS011;32907;41.412;2.164;2022-10-17T06:02:47;10.32;;;2.85;;
47153;SDS011;32907;41.412;2.164;2022-10-17T06:05:18;6.53;;;2.47;;
47153;SDS011;32907;41.412;2.164;2022-10-17T06:07:46;7.35;;;2.63;;
47153;SDS011;32907;41.412;2.164;2022-10-17T06:10:16;10.25;;;2.75;;
47153;SDS011;32907;41.412;2.164;2022-10-17T06:12:45;10.82;;;2.75;;
47153;SDS011;32907;41.412;2.164;2022-10-17T06:15:14;9.63;;;2.83;;
47153;SDS011;32907;41.412;2.164;2022-10-17T06:17:46;7.13;;;2.60;;
47153;SDS011;32907;41.412;2.164;2022-10-17T06:20:13;6.55;;;2.42;;
47153;SDS011;32907;41.412;2.164;2022-10-17T06:22:42;8.50;;;2.30;;
47153;SDS011;32907;41.412;2.164;2022-10-17T06:25:16;9.77;;;2.72;;
47153;SDS011;32907;41.412;2.164;2022-10-17T06:27:43;9.30;;;2.55;;
47153;SDS011;32907;41.412;2.164;2022-10-17T06:30:11;10.48;;;2.90;;
47153;SDS011;32907;41.412;2.164;2022-10-17T06:32:39;9.55;;;3.03;;
47153;SDS011;32907;41.412;2.164;2022-10-17T06:35:07;10.90;;;2.65;;
47153;SDS011;32907;41.412;2.164;2022-10-17T06:37:35;6.78;;;2.92;;
47153;SDS011;32907;41.412;2.164;2022-10-17T06:40:07;8.57;;;2.60;;
47153;SDS011;32907;41.412;2.164;2022-10-17T06:42:38;7.30;;;2.75;;
47153;SDS011;32907;41.412;2.164;2022-10-17T06:45:33;7.03;;;2.65;;
47153;SDS011;32907;41.412;2.164;2022-10-17T06:48:21;5.60;;;2.80;;
47153;SDS011;32907;41.412;2.164;2022-10-17T06:50:52;7.82;;;2.97;;
47153;SDS011;32907;41.412;2.164;2022-10-17T06:53:25;8.13;;;2.58;;
47153;SDS011;32907;41.412;2.164;2022-10-17T06:56:09;7.53;;;3.15;;
47153;SDS011;32907;41.412;2.164;2022-10-17T06:58:47;7.95;;;2.80;;
47153;SDS011;32907;41.412;2.164;2022-10-17T07:01:29;6.35;;;2.90;;
47153;SDS011;32907;41.412;2.164;2022-10-17T07:03:59;8.23;;;2.50;;
47153;SDS011;32907;41.412;2.164;2022-10-17T07:06:28;7.47;;;2.65;;
47153;SDS011;32907;41.412;2.164;2022-10-17T07:09:00;13.75;;;3.22;;
47153;SDS011;32907;41.412;2.164;2022-10-17T07:11:29;9.18;;;3.25;;
47153;SDS011;32907;41.412;2.164;2022-10-17T07:13:57;9.05;;;3.10;;
47153;SDS011;32907;41.412;2.164;2022-10-17T07:16:25;8.15;;;2.78;;
47153;SDS011;32907;41.412;2.164;2022-10-17T07:19:03;7.47;;;2.75;;
47153;SDS011;32907;41.412;2.164;2022-10-17T07:21:34;8.50;;;3.00;;
47153;SDS011;32907;41.412;2.164;2022-10-17T07:24:06;11.80;;;3.22;;
47153;SDS011;32907;41.412;2.164;2022-10-17T07:26:34;8.43;;;2.55;;
47153;SDS011;32907;41.412;2.164;2022-10-17T07:29:03;8.50;;;2.55;;
47153;SDS011;32907;41.412;2.164;2022-10-17T07:31:36;9.15;;;4.00;;
47153;SDS011;32907;41.412;2.164;2022-10-17T07:34:04;10.40;;;3.97;;
47153;SDS011;32907;41.412;2.164;2022-10-17T07:36:32;6.63;;;3.20;;
47153;SDS011;32907;41.412;2.164;2022-10-17T07:39:03;7.20;;;2.97;;
47153;SDS011;32907;41.412;2.164;2022-10-17T07:41:32;6.75;;;2.67;;
47153;SDS011;32907;41.412;2.164;2022-10-17T07:44:00;9.20;;;2.75;;
47153;SDS011;32907;41.412;2.164;2022-10-17T07:46:33;7.22;;;2.78;;
47153;SDS011;32907;41.412;2.164;2022-10-17T07:49:01;10.05;;;2.95;;
47153;SDS011;32907;41.412;2.164;2022-10-17T07:51:29;11.55;;;3.50;;
47153;SDS011;32907;41.412;2.164;2022-10-17T07:53:56;9.52;;;3.30;;
47153;SDS011;32907;41.412;2.164;2022-10-17T07:56:24;7.80;;;3.38;;
47153;SDS011;32907;41.412;2.164;2022-10-17T07:58:52;9.57;;;3.03;;
47153;SDS011;32907;41.412;2.164;2022-10-17T08:01:20;10.25;;;3.92;;
47153;SDS011;32907;41.412;2.164;2022-10-17T08:03:48;7.18;;;2.67;;
47153;SDS011;32907;41.412;2.164;2022-10-17T08:06:15;8.40;;;3.03;;
47153;SDS011;32907;41.412;2.164;2022-10-17T08:08:43;5.25;;;2.83;;
47153;SDS011;32907;41.412;2.164;2022-10-17T08:11:12;6.07;;;2.70;;
47153;SDS011;32907;41.412;2.164;2022-10-17T08:13:40;8.13;;;3.05;;
47153;SDS011;32907;41.412;2.164;2022-10-17T08:16:09;11.82;;;3.35;;
47153;SDS011;32907;41.412;2.164;2022-10-17T08:18:39;7.65;;;3.13;;
47153;SDS011;32907;41.412;2.164;2022-10-17T08:21:07;9.13;;;3.10;;
47153;SDS011;32907;41.412;2.164;2022-10-17T08:23:36;10.45;;;3.25;;
47153;SDS011;32907;41.412;2.164;2022-10-17T08:26:04;9.57;;;2.63;;
47153;SDS011;32907;41.412;2.164;2022-10-17T08:28:37;9.68;;;2.75;;
47153;SDS011;32907;41.412;2.164;2022-10-17T08:31:10;12.85;;;2.95;;
47153;SDS011;32907;41.412;2.164;2022-10-17T08:33:40;11.13;;;3.22;;
47153;SDS011;32907;41.412;2.164;2022-10-17T08:36:08;7.15;;;2.83;;
47153;SDS011;32907;41.412;2.164;2022-10-17T08:38:38;16.05;;;3.55;;
47153;SDS011;32907;41.412;2.164;2022-10-17T08:43:54;8.32;;;2.67;;
47153;SDS011;32907;41.412;2.164;2022-10-17T08:46:27;5.10;;;2.55;;
47153;SDS011;32907;41.412;2.164;2022-10-17T08:48:59;12.35;;;3.33;;
47153;SDS011;32907;41.412;2.164;2022-10-17T08:51:33;8.40;;;3.03;;
47153;SDS011;32907;41.412;2.164;2022-10-17T08:57:13;9.52;;;2.90;;
47153;SDS011;32907;41.412;2.164;2022-10-17T08:59:42;7.68;;;3.15;;
47153;SDS011;32907;41.412;2.164;2022-10-17T09:02:26;6.68;;;2.95;;
47153;SDS011;32907;41.412;2.164;2022-10-17T09:13:39;5.72;;;2.97;;
47153;SDS011;32907;41.412;2.164;2022-10-17T09:19:17;6.72;;;2.92;;
47153;SDS011;32907;41.412;2.164;2022-10-17T09:21:57;9.10;;;2.90;;
47153;SDS011;32907;41.412;2.164;2022-10-17T09:24:42;13.73;;;4.15;;
47153;SDS011;32907;41.412;2.164;2022-10-17T09:27:17;8.50;;;2.95;;
47153;SDS011;32907;41.412;2.164;2022-10-17T09:29:51;8.80;;;3.05;;
47153;SDS011;32907;41.412;2.164;2022-10-17T09:32:23;8.90;;;2.75;;
47153;SDS011;32907;41.412;2.164;2022-10-17T09:34:52;11.27;;;3.67;;
47153;SDS011;32907;41.412;2.164;2022-10-17T09:37:21;10.68;;;3.30;;
47153;SDS011;32907;41.412;2.164;2022-10-17T09:39:56;8.35;;;2.95;;
47153;SDS011;32907;41.412;2.164;2022-10-17T09:42:25;7.65;;;2.90;;
47153;SDS011;32907;41.412;2.164;2022-10-17T09:47:33;12.73;;;3.20;;
47153;SDS011;32907;41.412;2.164;2022-10-17T09:50:24;6.93;;;3.13;;
47153;SDS011;32907;41.412;2.164;2022-10-17T09:52:52;11.88;;;3.25;;
47153;SDS011;32907;41.412;2.164;2022-10-17T09:55:28;9.95;;;3.53;;
47153;SDS011;32907;41.412;2.164;2022-10-17T09:58:04;9.95;;;3.88;;
47153;SDS011;32907;41.412;2.164;2022-10-17T10:00:37;13.00;;;4.72;;
47153;SDS011;32907;41.412;2.164;2022-10-17T10:08:49;10.48;;;3.80;;
47153;SDS011;32907;41.412;2.164;2022-10-17T10:11:23;13.20;;;4.13;;
47153;SDS011;32907;41.412;2.164;2022-10-17T10:14:11;9.43;;;3.83;;
47153;SDS011;32907;41.412;2.164;2022-10-17T10:16:46;11.40;;;3.65;;
47153;SDS011;32907;41.412;2.164;2022-10-17T10:19:18;13.48;;;4.15;;
47153;SDS011;32907;41.412;2.164;2022-10-17T10:21:55;12.00;;;3.85;;
47153;SDS011;32907;41.412;2.164;2022-10-17T10:24:26;16.48;;;4.82;;
47153;SDS011;32907;41.412;2.164;2022-10-17T10:26:58;14.43;;;4.18;;
47153;SDS011;32907;41.412;2.164;2022-10-17T10:29:33;17.20;;;4.60;;
47153;SDS011;32907;41.412;2.164;2022-10-17T10:32:09;12.82;;;4.30;;
47153;SDS011;32907;41.412;2.164;2022-10-17T10:34:52;21.35;;;5.68;;
47153;SDS011;32907;41.412;2.164;2022-10-17T10:37:37;46.10;;;8.48;;
47153;SDS011;32907;41.412;2.164;2022-10-17T10:42:48;35.42;;;7.93;;
47153;SDS011;32907;41.412;2.164;2022-10-17T10:48:23;22.67;;;6.75;;
47153;SDS011;32907;41.412;2.164;2022-10-17T10:56:13;17.98;;;5.55;;
47153;SDS011;32907;41.412;2.164;2022-10-17T11:01:38;18.40;;;6.03;;
47153;SDS011;32907;41.412;2.164;2022-10-17T11:09:52;19.92;;;6.68;;
47153;SDS011;32907;41.412;2.164;2022-10-17T11:20:35;22.83;;;6.80;;
47153;SDS011;32907;41.412;2.164;2022-10-17T11:23:13;18.88;;;6.20;;
47153;SDS011;32907;41.412;2.164;2022-10-17T11:25:47;24.60;;;6.13;;
47153;SDS011;32907;41.412;2.164;2022-10-17T11:28:17;16.23;;;5.68;;
47153;SDS011;32907;41.412;2.164;2022-10-17T11:31:06;22.25;;;6.35;;
47153;SDS011;32907;41.412;2.164;2022-10-17T11:36:05;11.18;;;5.03;;
47153;SDS011;32907;41.412;2.164;2022-10-17T11:38:46;22.65;;;6.30;;
47153;SDS011;32907;41.412;2.164;2022-10-17T11:41:23;22.13;;;6.78;;
47153;SDS011;32907;41.412;2.164;2022-10-17T11:44:11;18.30;;;6.20;;
47153;SDS011;32907;41.412;2.164;2022-10-17T11:47:22;16.92;;;6.00;;
47153;SDS011;32907;41.412;2.164;2022-10-17T11:50:38;18.55;;;6.05;;
47153;SDS011;32907;41.412;2.164;2022-10-17T11:53:08;12.23;;;5.40;;
47153;SDS011;32907;41.412;2.164;2022-10-17T11:55:40;14.88;;;5.43;;
47153;SDS011;32907;41.412;2.164;2022-10-17T12:14:39;12.93;;;4.20;;
47153;SDS011;32907;41.412;2.164;2022-10-17T12:25:32;10.57;;;4.20;;
47153;SDS011;32907;41.412;2.164;2022-10-17T12:28:14;14.18;;;4.72;;
47153;SDS011;32907;41.412;2.164;2022-10-17T12:31:28;12.27;;;4.55;;
47153;SDS011;32907;41.412;2.164;2022-10-17T12:46:45;11.77;;;4.10;;
47153;SDS011;32907;41.412;2.164;2022-10-17T12:49:23;14.32;;;3.70;;
47153;SDS011;32907;41.412;2.164;2022-10-17T12:54:45;11.95;;;3.78;;
47153;SDS011;32907;41.412;2.164;2022-10-17T12:57:50;9.45;;;3.47;;
47153;SDS011;32907;41.412;2.164;2022-10-17T13:03:52;13.10;;;3.20;;
47153;SDS011;32907;41.412;2.164;2022-10-17T13:06:26;11.95;;;2.97;;
47153;SDS011;32907;41.412;2.164;2022-10-17T13:09:07;11.15;;;3.28;;
47153;SDS011;32907;41.412;2.164;2022-10-17T13:11:43;14.32;;;3.53;;
47153;SDS011;32907;41.412;2.164;2022-10-17T13:14:12;11.05;;;3.53;;
47153;SDS011;32907;41.412;2.164;2022-10-17T13:16:50;14.70;;;3.50;;
47153;SDS011;32907;41.412;2.164;2022-10-17T13:19:21;13.65;;;3.70;;
47153;SDS011;32907;41.412;2.164;2022-10-17T13:21:51;14.20;;;3.13;;
47153;SDS011;32907;41.412;2.164;2022-10-17T13:24:32;10.77;;;3.13;;
47153;SDS011;32907;41.412;2.164;2022-10-17T13:27:04;15.43;;;3.40;;
47153;SDS011;32907;41.412;2.164;2022-10-17T13:29:34;10.93;;;3.05;;
47153;SDS011;32907;41.412;2.164;2022-10-17T13:32:09;14.10;;;4.10;;
47153;SDS011;32907;41.412;2.164;2022-10-17T13:34:38;11.05;;;3.30;;
47153;SDS011;32907;41.412;2.164;2022-10-17T13:37:09;15.65;;;4.20;;
47153;SDS011;32907;41.412;2.164;2022-10-17T13:39:42;11.95;;;3.35;;
47153;SDS011;32907;41.412;2.164;2022-10-17T13:44:54;12.68;;;3.65;;
47153;SDS011;32907;41.412;2.164;2022-10-17T13:47:22;13.18;;;3.50;;
47153;SDS011;32907;41.412;2.164;2022-10-17T13:49:53;18.98;;;4.68;;
47153;SDS011;32907;41.412;2.164;2022-10-17T13:52:25;14.63;;;3.92;;
47153;SDS011;32907;41.412;2.164;2022-10-17T13:55:05;19.38;;;4.43;;
47153;SDS011;32907;41.412;2.164;2022-10-17T13:57:40;13.45;;;3.63;;
47153;SDS011;32907;41.412;2.164;2022-10-17T14:00:18;14.50;;;3.78;;
47153;SDS011;32907;41.412;2.164;2022-10-17T14:02:48;12.27;;;3.25;;
47153;SDS011;32907;41.412;2.164;2022-10-17T14:05:17;11.65;;;3.47;;
47153;SDS011;32907;41.412;2.164;2022-10-17T14:07:53;11.80;;;2.90;;
47153;SDS011;32907;41.412;2.164;2022-10-17T14:10:43;10.02;;;3.70;;
47153;SDS011;32907;41.412;2.164;2022-10-17T14:13:22;10.93;;;3.67;;
47153;SDS011;32907;41.412;2.164;2022-10-17T14:15:53;13.90;;;3.55;;
47153;SDS011;32907;41.412;2.164;2022-10-17T14:18:32;11.82;;;3.60;;
47153;SDS011;32907;41.412;2.164;2022-10-17T14:21:03;20.52;;;3.80;;
47153;SDS011;32907;41.412;2.164;2022-10-17T14:24:10;19.55;;;3.60;;
47153;SDS011;32907;41.412;2.164;2022-10-17T14:26:50;16.00;;;3.70;;
47153;SDS011;32907;41.412;2.164;2022-10-17T14:29:20;20.98;;;5.80;;
47153;SDS011;32907;41.412;2.164;2022-10-17T14:31:58;31.00;;;5.70;;
47153;SDS011;32907;41.412;2.164;2022-10-17T14:34:30;31.13;;;6.82;;
47153;SDS011;32907;41.412;2.164;2022-10-17T14:37:00;39.00;;;6.10;;
47153;SDS011;32907;41.412;2.164;2022-10-17T14:39:34;37.08;;;7.00;;
47153;SDS011;32907;41.412;2.164;2022-10-17T14:42:03;37.35;;;7.35;;
47153;SDS011;32907;41.412;2.164;2022-10-17T14:44:32;29.65;;;6.47;;
47153;SDS011;32907;41.412;2.164;2022-10-17T14:47:02;40.20;;;7.38;;
47153;SDS011;32907;41.412;2.164;2022-10-17T14:50:03;35.53;;;7.50;;
47153;SDS011;32907;41.412;2.164;2022-10-17T14:52:33;35.30;;;7.53;;
47153;SDS011;32907;41.412;2.164;2022-10-17T14:55:15;38.63;;;8.10;;
47153;SDS011;32907;41.412;2.164;2022-10-17T14:57:54;51.60;;;7.75;;
47153;SDS011;32907;41.412;2.164;2022-10-17T15:00:22;41.40;;;6.63;;
47153;SDS011;32907;41.412;2.164;2022-10-17T15:02:51;36.00;;;6.88;;
47153;SDS011;32907;41.412;2.164;2022-10-17T15:05:20;38.35;;;7.38;;
47153;SDS011;32907;41.412;2.164;2022-10-17T15:07:49;32.28;;;6.72;;
47153;SDS011;32907;41.412;2.164;2022-10-17T15:10:26;25.77;;;5.43;;
47153;SDS011;32907;41.412;2.164;2022-10-17T15:12:58;26.45;;;5.85;;
47153;SDS011;32907;41.412;2.164;2022-10-17T15:15:46;38.38;;;5.85;;
47153;SDS011;32907;41.412;2.164;2022-10-17T15:18:18;22.95;;;5.85;;
47153;SDS011;32907;41.412;2.164;2022-10-17T15:20:46;22.02;;;5.22;;
47153;SDS011;32907;41.412;2.164;2022-10-17T15:23:25;20.13;;;5.05;;
47153;SDS011;32907;41.412;2.164;2022-10-17T15:25:53;14.80;;;5.20;;
47153;SDS011;32907;41.412;2.164;2022-10-17T15:28:21;18.63;;;5.57;;
47153;SDS011;32907;41.412;2.164;2022-10-17T15:30:48;25.42;;;5.95;;
47153;SDS011;32907;41.412;2.164;2022-10-17T15:33:16;21.45;;;4.72;;
47153;SDS011;32907;41.412;2.164;2022-10-17T15:35:44;15.80;;;5.00;;
47153;SDS011;32907;41.412;2.164;2022-10-17T15:38:12;15.05;;;3.92;;
47153;SDS011;32907;41.412;2.164;2022-10-17T15:40:44;15.15;;;5.03;;
47153;SDS011;32907;41.412;2.164;2022-10-17T15:43:15;13.18;;;3.90;;
47153;SDS011;32907;41.412;2.164;2022-10-17T15:45:46;10.95;;;3.33;;
47153;SDS011;32907;41.412;2.164;2022-10-17T15:48:19;10.23;;;3.70;;
47153;SDS011;32907;41.412;2.164;2022-10-17T15:50:54;9.95;;;3.70;;
47153;SDS011;32907;41.412;2.164;2022-10-17T15:53:23;15.68;;;4.65;;
47153;SDS011;32907;41.412;2.164;2022-10-17T15:55:51;13.52;;;4.15;;
47153;SDS011;32907;41.412;2.164;2022-10-17T15:58:19;11.90;;;4.13;;
47153;SDS011;32907;41.412;2.164;2022-10-17T16:00:47;13.27;;;3.90;;
47153;SDS011;32907;41.412;2.164;2022-10-17T16:03:15;15.70;;;4.45;;
47153;SDS011;32907;41.412;2.164;2022-10-17T16:05:43;12.73;;;4.00;;
47153;SDS011;32907;41.412;2.164;2022-10-17T16:08:10;13.05;;;4.15;;
47153;SDS011;32907;41.412;2.164;2022-10-17T16:10:38;14.18;;;5.38;;
47153;SDS011;32907;41.412;2.164;2022-10-17T16:13:11;16.73;;;5.68;;
47153;SDS011;32907;41.412;2.164;2022-10-17T16:15:46;13.02;;;4.53;;
47153;SDS011;32907;41.412;2.164;2022-10-17T16:18:14;16.95;;;5.50;;
47153;SDS011;32907;41.412;2.164;2022-10-17T16:20:41;15.65;;;4.55;;
47153;SDS011;32907;41.412;2.164;2022-10-17T16:23:09;13.25;;;3.55;;
47153;SDS011;32907;41.412;2.164;2022-10-17T16:25:39;10.75;;;3.78;;
47153;SDS011;32907;41.412;2.164;2022-10-17T16:28:07;11.38;;;3.22;;
47153;SDS011;32907;41.412;2.164;2022-10-17T16:30:37;10.75;;;3.78;;
47153;SDS011;32907;41.412;2.164;2022-10-17T16:33:09;14.27;;;4.93;;
47153;SDS011;32907;41.412;2.164;2022-10-17T16:35:37;15.48;;;4.72;;
47153;SDS011;32907;41.412;2.164;2022-10-17T16:38:05;12.52;;;4.35;;
47153;SDS011;32907;41.412;2.164;2022-10-17T16:40:34;11.90;;;4.43;;
47153;SDS011;32907;41.412;2.164;2022-10-17T16:43:05;10.63;;;3.90;;
47153;SDS011;32907;41.412;2.164;2022-10-17T16:45:36;9.95;;;3.83;;
47153;SDS011;32907;41.412;2.164;2022-10-17T16:48:04;12.52;;;3.85;;
47153;SDS011;32907;41.412;2.164;2022-10-17T16:50:32;9.32;;;3.72;;
47153;SDS011;32907;41.412;2.164;2022-10-17T16:53:01;10.75;;;3.75;;
47153;SDS011;32907;41.412;2.164;2022-10-17T16:55:30;10.75;;;4.25;;
47153;SDS011;32907;41.412;2.164;2022-10-17T16:57:57;11.40;;;4.13;;
47153;SDS011;32907;41.412;2.164;2022-10-17T17:00:26;11.95;;;4.15;;
47153;SDS011;32907;41.412;2.164;2022-10-17T17:02:54;15.23;;;4.80;;
47153;SDS011;32907;41.412;2.164;2022-10-17T17:05:21;11.38;;;4.25;;
47153;SDS011;32907;41.412;2.164;2022-10-17T17:07:49;11.35;;;3.75;;
47153;SDS011;32907;41.412;2.164;2022-10-17T17:10:17;12.85;;;4.72;;
47153;SDS011;32907;41.412;2.164;2022-10-17T17:12:45;12.57;;;4.18;;
47153;SDS011;32907;41.412;2.164;2022-10-17T17:15:13;10.90;;;4.05;;
47153;SDS011;32907;41.412;2.164;2022-10-17T17:17:41;8.18;;;3.55;;
47153;SDS011;32907;41.412;2.164;2022-10-17T17:20:19;11.55;;;4.38;;
47153;SDS011;32907;41.412;2.164;2022-10-17T17:22:47;10.80;;;3.88;;
47153;SDS011;32907;41.412;2.164;2022-10-17T17:25:16;12.45;;;4.07;;
47153;SDS011;32907;41.412;2.164;2022-10-17T17:27:44;11.02;;;3.78;;
47153;SDS011;32907;41.412;2.164;2022-10-17T17:30:12;11.45;;;4.38;;